sensor_id;sensor_type;location;lat;lon;timestamp;temperature;humidity
13072;DHT22;6602;58.934;11.166;2023-05-10T00:00:18;11.30;99.90
13072;DHT22;6602;58.934;11.166;2023-05-10T00:05:21;11.40;99.90
13072;DHT22;6602;58.934;11.166;2023-05-10T00:10:22;11.40;99.90
13072;DHT22;6602;58.934;11.166;2023-05-10T00:15:22;11.30;99.90
13072;DHT22;6602;58.934;11.166;2023-05-10T00:20:23;11.30;99.90
13072;DHT22;6602;58.934;11.166;2023-05-10T00:25:24;11.30;99.90
13072;DHT22;6602;58.934;11.166;2023-05-10T00:30:25;11.30;99.90
13072;DHT22;6602;58.934;11.166;2023-05-10T00:35:26;11.20;99.90
13072;DHT22;6602;58.934;11.166;2023-05-10T00:40:27;11.30;99.90
13072;DHT22;6602;58.934;11.166;2023-05-10T00:45:31;11.30;99.90
13072;DHT22;6602;58.934;11.166;2023-05-10T00:50:35;11.20;99.90
13072;DHT22;6602;58.934;11.166;2023-05-10T00:55:36;11.20;99.90
13072;DHT22;6602;58.934;11.166;2023-05-10T01:00:38;11.10;99.90
13072;DHT22;6602;58.934;11.166;2023-05-10T01:05:42;11.00;99.90
13072;DHT22;6602;58.934;11.166;2023-05-10T01:10:43;11.00;99.90
13072;DHT22;6602;58.934;11.166;2023-05-10T01:15:46;11.10;99.90
13072;DHT22;6602;58.934;11.166;2023-05-10T01:20:51;11.00;99.90
13072;DHT22;6602;58.934;11.166;2023-05-10T01:36:43;11.00;99.90
13072;DHT22;6602;58.934;11.166;2023-05-10T01:42:03;10.90;99.90
13072;DHT22;6602;58.934;11.166;2023-05-10T01:47:12;10.90;99.90
13072;DHT22;6602;58.934;11.166;2023-05-10T01:52:18;10.80;99.90
13072;DHT22;6602;58.934;11.166;2023-05-10T01:57:20;10.80;99.90
13072;DHT22;6602;58.934;11.166;2023-05-10T02:02:23;10.70;99.90
13072;DHT22;6602;58.934;11.166;2023-05-10T02:07:26;10.70;99.90
13072;DHT22;6602;58.934;11.166;2023-05-10T02:12:29;10.70;99.90
13072;DHT22;6602;58.934;11.166;2023-05-10T02:17:32;10.60;99.90
13072;DHT22;6602;58.934;11.166;2023-05-10T02:22:33;10.60;99.90
13072;DHT22;6602;58.934;11.166;2023-05-10T02:27:40;10.50;99.90
13072;DHT22;6602;58.934;11.166;2023-05-10T02:32:42;10.50;99.90
13072;DHT22;6602;58.934;11.166;2023-05-10T02:37:48;10.40;99.90
13072;DHT22;6602;58.934;11.166;2023-05-10T02:42:52;10.30;99.90
13072;DHT22;6602;58.934;11.166;2023-05-10T02:47:55;10.30;99.90
13072;DHT22;6602;58.934;11.166;2023-05-10T02:53:00;10.30;99.90
13072;DHT22;6602;58.934;11.166;2023-05-10T02:58:03;10.20;99.90
13072;DHT22;6602;58.934;11.166;2023-05-10T03:03:04;10.20;99.90
13072;DHT22;6602;58.934;11.166;2023-05-10T03:08:05;10.10;99.90
13072;DHT22;6602;58.934;11.166;2023-05-10T03:18:54;10.20;99.90
13072;DHT22;6602;58.934;11.166;2023-05-10T03:24:04;10.20;99.90
13072;DHT22;6602;58.934;11.166;2023-05-10T03:29:08;10.20;99.90
13072;DHT22;6602;58.934;11.166;2023-05-10T03:34:10;10.30;99.90
13072;DHT22;6602;58.934;11.166;2023-05-10T03:39:11;10.40;99.90
13072;DHT22;6602;58.934;11.166;2023-05-10T03:44:12;10.30;99.90
13072;DHT22;6602;58.934;11.166;2023-05-10T03:49:19;10.40;99.90
13072;DHT22;6602;58.934;11.166;2023-05-10T03:54:20;10.60;99.90
13072;DHT22;6602;58.934;11.166;2023-05-10T03:59:21;10.60;99.90
13072;DHT22;6602;58.934;11.166;2023-05-10T04:04:22;10.50;99.90
13072;DHT22;6602;58.934;11.166;2023-05-10T04:09:23;10.50;99.90
13072;DHT22;6602;58.934;11.166;2023-05-10T04:14:24;10.60;99.90
13072;DHT22;6602;58.934;11.166;2023-05-10T04:19:32;10.60;99.90
13072;DHT22;6602;58.934;11.166;2023-05-10T04:24:34;10.60;99.90
13072;DHT22;6602;58.934;11.166;2023-05-10T04:29:34;10.70;99.90
13072;DHT22;6602;58.934;11.166;2023-05-10T04:34:36;10.80;99.90
13072;DHT22;6602;58.934;11.166;2023-05-10T04:39:37;11.20;99.90
13072;DHT22;6602;58.934;11.166;2023-05-10T04:44:38;11.40;99.90
13072;DHT22;6602;58.934;11.166;2023-05-10T04:49:39;11.70;99.90
13072;DHT22;6602;58.934;11.166;2023-05-10T04:54:40;12.00;99.90
13072;DHT22;6602;58.934;11.166;2023-05-10T04:59:41;12.10;99.90
13072;DHT22;6602;58.934;11.166;2023-05-10T05:04:43;12.30;99.90
13072;DHT22;6602;58.934;11.166;2023-05-10T05:09:43;12.30;99.90
13072;DHT22;6602;58.934;11.166;2023-05-10T05:14:44;12.30;99.90
13072;DHT22;6602;58.934;11.166;2023-05-10T05:19:45;12.30;99.90
13072;DHT22;6602;58.934;11.166;2023-05-10T05:24:46;12.50;99.90
13072;DHT22;6602;58.934;11.166;2023-05-10T05:29:47;12.40;99.90
13072;DHT22;6602;58.934;11.166;2023-05-10T05:34:48;12.50;99.90
13072;DHT22;6602;58.934;11.166;2023-05-10T05:39:49;12.50;99.90
13072;DHT22;6602;58.934;11.166;2023-05-10T05:44:51;12.60;99.90
13072;DHT22;6602;58.934;11.166;2023-05-10T05:49:52;12.70;99.90
13072;DHT22;6602;58.934;11.166;2023-05-10T05:54:53;12.80;99.90
13072;DHT22;6602;58.934;11.166;2023-05-10T06:00:07;13.10;99.90
13072;DHT22;6602;58.934;11.166;2023-05-10T06:05:08;13.10;99.90
13072;DHT22;6602;58.934;11.166;2023-05-10T06:10:09;13.30;99.90
13072;DHT22;6602;58.934;11.166;2023-05-10T06:15:10;13.40;99.90
13072;DHT22;6602;58.934;11.166;2023-05-10T06:20:12;13.80;99.90
13072;DHT22;6602;58.934;11.166;2023-05-10T06:25:13;13.80;99.90
13072;DHT22;6602;58.934;11.166;2023-05-10T06:30:15;13.90;99.90
13072;DHT22;6602;58.934;11.166;2023-05-10T06:35:16;14.00;99.90
13072;DHT22;6602;58.934;11.166;2023-05-10T06:40:17;14.20;99.90
13072;DHT22;6602;58.934;11.166;2023-05-10T06:45:19;14.40;99.90
13072;DHT22;6602;58.934;11.166;2023-05-10T06:50:20;14.80;99.90
13072;DHT22;6602;58.934;11.166;2023-05-10T06:55:21;14.70;99.90
13072;DHT22;6602;58.934;11.166;2023-05-10T07:00:24;15.10;99.90
13072;DHT22;6602;58.934;11.166;2023-05-10T07:05:25;15.30;99.90
13072;DHT22;6602;58.934;11.166;2023-05-10T07:10:28;15.70;99.90
13072;DHT22;6602;58.934;11.166;2023-05-10T07:15:29;15.80;99.90
13072;DHT22;6602;58.934;11.166;2023-05-10T07:20:30;15.70;99.90
13072;DHT22;6602;58.934;11.166;2023-05-10T07:25:31;15.70;99.90
13072;DHT22;6602;58.934;11.166;2023-05-10T07:30:32;15.90;99.90
13072;DHT22;6602;58.934;11.166;2023-05-10T07:35:33;15.80;99.90
13072;DHT22;6602;58.934;11.166;2023-05-10T07:40:33;16.00;99.90
13072;DHT22;6602;58.934;11.166;2023-05-10T07:45:34;16.00;99.90
13072;DHT22;6602;58.934;11.166;2023-05-10T07:50:36;16.40;99.90
13072;DHT22;6602;58.934;11.166;2023-05-10T07:55:37;16.90;99.90
13072;DHT22;6602;58.934;11.166;2023-05-10T08:00:38;17.00;99.90
13072;DHT22;6602;58.934;11.166;2023-05-10T08:05:41;17.20;99.90
13072;DHT22;6602;58.934;11.166;2023-05-10T08:10:41;17.20;99.90
13072;DHT22;6602;58.934;11.166;2023-05-10T08:15:42;17.30;99.90
13072;DHT22;6602;58.934;11.166;2023-05-10T08:20:43;17.60;99.90
13072;DHT22;6602;58.934;11.166;2023-05-10T08:25:44;17.70;99.90
13072;DHT22;6602;58.934;11.166;2023-05-10T08:30:49;17.70;99.90
13072;DHT22;6602;58.934;11.166;2023-05-10T08:35:49;18.00;99.90
13072;DHT22;6602;58.934;11.166;2023-05-10T08:40:55;17.90;99.90
13072;DHT22;6602;58.934;11.166;2023-05-10T08:46:00;18.10;99.90
13072;DHT22;6602;58.934;11.166;2023-05-10T08:51:03;18.10;99.90
13072;DHT22;6602;58.934;11.166;2023-05-10T08:56:05;18.30;99.90
13072;DHT22;6602;58.934;11.166;2023-05-10T09:01:06;18.70;99.90
13072;DHT22;6602;58.934;11.166;2023-05-10T09:06:09;19.10;99.90
13072;DHT22;6602;58.934;11.166;2023-05-10T09:11:21;19.20;99.90
13072;DHT22;6602;58.934;11.166;2023-05-10T09:16:23;19.70;99.90
13072;DHT22;6602;58.934;11.166;2023-05-10T09:21:25;19.50;99.90
13072;DHT22;6602;58.934;11.166;2023-05-10T09:26:26;19.10;99.90
13072;DHT22;6602;58.934;11.166;2023-05-10T09:31:49;19.40;99.90
13072;DHT22;6602;58.934;11.166;2023-05-10T09:37:00;19.70;99.90
13072;DHT22;6602;58.934;11.166;2023-05-10T09:42:06;19.40;99.90
13072;DHT22;6602;58.934;11.166;2023-05-10T09:47:17;19.80;99.60
13072;DHT22;6602;58.934;11.166;2023-05-10T09:52:19;20.10;99.90
13072;DHT22;6602;58.934;11.166;2023-05-10T09:57:24;20.50;97.80
13072;DHT22;6602;58.934;11.166;2023-05-10T10:02:28;20.90;99.00
13072;DHT22;6602;58.934;11.166;2023-05-10T10:07:30;20.90;98.70
13072;DHT22;6602;58.934;11.166;2023-05-10T10:12:32;20.70;98.00
13072;DHT22;6602;58.934;11.166;2023-05-10T10:17:36;19.90;97.70
13072;DHT22;6602;58.934;11.166;2023-05-10T10:22:37;19.40;98.70
13072;DHT22;6602;58.934;11.166;2023-05-10T10:38:54;19.80;98.30
13072;DHT22;6602;58.934;11.166;2023-05-10T10:49:49;20.50;98.10
13072;DHT22;6602;58.934;11.166;2023-05-10T10:55:14;20.70;97.80
13072;DHT22;6602;58.934;11.166;2023-05-10T11:00:27;21.00;96.20
13072;DHT22;6602;58.934;11.166;2023-05-10T11:05:39;21.00;97.70
13072;DHT22;6602;58.934;11.166;2023-05-10T11:10:49;21.10;97.20
13072;DHT22;6602;58.934;11.166;2023-05-10T11:15:58;20.90;95.10
13072;DHT22;6602;58.934;11.166;2023-05-10T11:21:01;20.80;98.20
13072;DHT22;6602;58.934;11.166;2023-05-10T11:26:09;20.80;97.00
13072;DHT22;6602;58.934;11.166;2023-05-10T11:31:21;21.20;97.30
13072;DHT22;6602;58.934;11.166;2023-05-10T11:36:36;21.20;99.90
13072;DHT22;6602;58.934;11.166;2023-05-10T11:41:37;20.60;99.90
13072;DHT22;6602;58.934;11.166;2023-05-10T11:46:38;19.60;99.90
13072;DHT22;6602;58.934;11.166;2023-05-10T11:51:39;19.50;99.90
13072;DHT22;6602;58.934;11.166;2023-05-10T11:56:41;19.50;99.90
13072;DHT22;6602;58.934;11.166;2023-05-10T12:01:42;19.30;99.90
13072;DHT22;6602;58.934;11.166;2023-05-10T12:06:46;19.10;99.90
13072;DHT22;6602;58.934;11.166;2023-05-10T12:11:55;19.10;99.90
13072;DHT22;6602;58.934;11.166;2023-05-10T12:16:59;19.20;99.90
13072;DHT22;6602;58.934;11.166;2023-05-10T12:22:04;18.80;99.90
13072;DHT22;6602;58.934;11.166;2023-05-10T12:27:17;18.50;99.90
13072;DHT22;6602;58.934;11.166;2023-05-10T12:32:18;18.70;99.90
13072;DHT22;6602;58.934;11.166;2023-05-10T12:37:25;18.30;99.90
13072;DHT22;6602;58.934;11.166;2023-05-10T12:42:34;18.10;99.90
13072;DHT22;6602;58.934;11.166;2023-05-10T12:47:39;18.20;99.90
13072;DHT22;6602;58.934;11.166;2023-05-10T12:52:41;18.10;99.90
13072;DHT22;6602;58.934;11.166;2023-05-10T12:57:47;17.90;99.90
13072;DHT22;6602;58.934;11.166;2023-05-10T13:02:48;17.90;99.90
13072;DHT22;6602;58.934;11.166;2023-05-10T13:07:52;17.90;99.90
13072;DHT22;6602;58.934;11.166;2023-05-10T13:12:53;17.90;99.90
13072;DHT22;6602;58.934;11.166;2023-05-10T13:17:54;18.00;99.90
13072;DHT22;6602;58.934;11.166;2023-05-10T13:23:07;17.80;99.90
13072;DHT22;6602;58.934;11.166;2023-05-10T13:28:08;17.80;99.90
13072;DHT22;6602;58.934;11.166;2023-05-10T13:33:09;17.80;99.90
13072;DHT22;6602;58.934;11.166;2023-05-10T13:38:10;17.70;99.90
13072;DHT22;6602;58.934;11.166;2023-05-10T13:43:13;17.60;99.90
13072;DHT22;6602;58.934;11.166;2023-05-10T13:48:14;17.40;99.90
13072;DHT22;6602;58.934;11.166;2023-05-10T13:53:17;17.10;99.90
13072;DHT22;6602;58.934;11.166;2023-05-10T13:58:18;17.20;99.90
13072;DHT22;6602;58.934;11.166;2023-05-10T14:03:19;17.30;99.90
13072;DHT22;6602;58.934;11.166;2023-05-10T14:08:19;17.40;99.90
13072;DHT22;6602;58.934;11.166;2023-05-10T14:13:21;17.20;99.90
13072;DHT22;6602;58.934;11.166;2023-05-10T14:18:34;17.00;99.90
13072;DHT22;6602;58.934;11.166;2023-05-10T14:23:41;17.00;99.90
13072;DHT22;6602;58.934;11.166;2023-05-10T14:28:42;17.10;99.90
13072;DHT22;6602;58.934;11.166;2023-05-10T14:33:42;17.20;99.90
13072;DHT22;6602;58.934;11.166;2023-05-10T14:38:46;17.30;99.90
13072;DHT22;6602;58.934;11.166;2023-05-10T14:43:47;17.50;99.90
13072;DHT22;6602;58.934;11.166;2023-05-10T14:48:48;17.50;99.90
13072;DHT22;6602;58.934;11.166;2023-05-10T14:53:52;17.30;99.90
13072;DHT22;6602;58.934;11.166;2023-05-10T14:58:52;17.20;99.90
13072;DHT22;6602;58.934;11.166;2023-05-10T15:03:53;17.20;99.90
13072;DHT22;6602;58.934;11.166;2023-05-10T15:08:54;17.00;99.90
13072;DHT22;6602;58.934;11.166;2023-05-10T15:13:55;16.90;99.90
13072;DHT22;6602;58.934;11.166;2023-05-10T15:18:56;17.00;99.90
13072;DHT22;6602;58.934;11.166;2023-05-10T15:23:57;17.10;99.90
13072;DHT22;6602;58.934;11.166;2023-05-10T15:29:03;17.20;99.90
13072;DHT22;6602;58.934;11.166;2023-05-10T15:34:04;17.30;99.90
13072;DHT22;6602;58.934;11.166;2023-05-10T15:39:05;17.40;99.90
13072;DHT22;6602;58.934;11.166;2023-05-10T15:44:06;17.30;99.90
13072;DHT22;6602;58.934;11.166;2023-05-10T15:49:07;17.40;99.90
13072;DHT22;6602;58.934;11.166;2023-05-10T15:54:10;17.30;99.90
13072;DHT22;6602;58.934;11.166;2023-05-10T15:59:12;17.00;99.90
13072;DHT22;6602;58.934;11.166;2023-05-10T16:04:31;16.80;99.90
13072;DHT22;6602;58.934;11.166;2023-05-10T16:09:32;16.80;99.90
13072;DHT22;6602;58.934;11.166;2023-05-10T16:14:33;16.80;99.90
13072;DHT22;6602;58.934;11.166;2023-05-10T16:19:35;16.80;99.90
13072;DHT22;6602;58.934;11.166;2023-05-10T16:24:55;17.00;99.90
13072;DHT22;6602;58.934;11.166;2023-05-10T16:29:56;17.10;99.90
13072;DHT22;6602;58.934;11.166;2023-05-10T16:34:58;17.10;99.90
13072;DHT22;6602;58.934;11.166;2023-05-10T16:40:00;17.10;99.90
13072;DHT22;6602;58.934;11.166;2023-05-10T16:45:03;17.20;99.90
13072;DHT22;6602;58.934;11.166;2023-05-10T16:50:20;17.20;99.90
13072;DHT22;6602;58.934;11.166;2023-05-10T16:55:21;17.00;99.90
13072;DHT22;6602;58.934;11.166;2023-05-10T17:00:28;17.00;99.90
13072;DHT22;6602;58.934;11.166;2023-05-10T17:05:29;17.00;99.90
13072;DHT22;6602;58.934;11.166;2023-05-10T17:10:45;17.10;99.90
13072;DHT22;6602;58.934;11.166;2023-05-10T17:15:49;17.10;99.90
13072;DHT22;6602;58.934;11.166;2023-05-10T17:20:52;17.00;99.90
13072;DHT22;6602;58.934;11.166;2023-05-10T17:25:53;17.00;99.90
13072;DHT22;6602;58.934;11.166;2023-05-10T17:30:56;17.00;99.90
13072;DHT22;6602;58.934;11.166;2023-05-10T17:35:57;17.00;99.90
13072;DHT22;6602;58.934;11.166;2023-05-10T17:41:01;17.00;99.90
13072;DHT22;6602;58.934;11.166;2023-05-10T17:46:02;16.90;99.90
13072;DHT22;6602;58.934;11.166;2023-05-10T17:51:03;16.90;99.90
13072;DHT22;6602;58.934;11.166;2023-05-10T17:56:11;16.90;99.90
13072;DHT22;6602;58.934;11.166;2023-05-10T18:01:13;16.80;99.90
13072;DHT22;6602;58.934;11.166;2023-05-10T18:06:22;16.70;99.90
13072;DHT22;6602;58.934;11.166;2023-05-10T18:11:30;16.70;99.90
13072;DHT22;6602;58.934;11.166;2023-05-10T18:16:31;16.40;99.90
13072;DHT22;6602;58.934;11.166;2023-05-10T18:21:33;16.40;99.90
13072;DHT22;6602;58.934;11.166;2023-05-10T18:26:33;16.30;99.90
13072;DHT22;6602;58.934;11.166;2023-05-10T18:31:35;16.20;99.90
13072;DHT22;6602;58.934;11.166;2023-05-10T18:36:36;16.10;99.90
13072;DHT22;6602;58.934;11.166;2023-05-10T18:41:39;16.00;99.90
13072;DHT22;6602;58.934;11.166;2023-05-10T18:46:43;15.90;99.90
13072;DHT22;6602;58.934;11.166;2023-05-10T18:51:44;15.70;99.90
13072;DHT22;6602;58.934;11.166;2023-05-10T18:56:46;15.60;99.90
13072;DHT22;6602;58.934;11.166;2023-05-10T19:01:46;15.40;99.90
13072;DHT22;6602;58.934;11.166;2023-05-10T19:06:48;15.20;99.90
13072;DHT22;6602;58.934;11.166;2023-05-10T19:11:50;15.10;99.90
13072;DHT22;6602;58.934;11.166;2023-05-10T19:16:54;15.00;99.90
13072;DHT22;6602;58.934;11.166;2023-05-10T19:22:00;14.80;99.90
13072;DHT22;6602;58.934;11.166;2023-05-10T19:27:02;14.60;99.90
13072;DHT22;6602;58.934;11.166;2023-05-10T19:32:03;14.40;99.90
13072;DHT22;6602;58.934;11.166;2023-05-10T19:37:04;14.30;99.90
13072;DHT22;6602;58.934;11.166;2023-05-10T19:42:08;14.00;99.90
13072;DHT22;6602;58.934;11.166;2023-05-10T19:47:14;13.90;99.90
13072;DHT22;6602;58.934;11.166;2023-05-10T19:52:17;13.80;99.90
13072;DHT22;6602;58.934;11.166;2023-05-10T19:57:21;13.70;99.90
13072;DHT22;6602;58.934;11.166;2023-05-10T20:02:22;13.40;99.90
13072;DHT22;6602;58.934;11.166;2023-05-10T20:07:23;13.00;99.90
13072;DHT22;6602;58.934;11.166;2023-05-10T20:12:33;12.90;99.90
13072;DHT22;6602;58.934;11.166;2023-05-10T20:17:34;12.40;99.90
13072;DHT22;6602;58.934;11.166;2023-05-10T20:22:36;12.20;99.90
13072;DHT22;6602;58.934;11.166;2023-05-10T20:27:43;12.30;99.90
13072;DHT22;6602;58.934;11.166;2023-05-10T20:32:46;12.30;99.90
13072;DHT22;6602;58.934;11.166;2023-05-10T20:37:50;12.30;99.90
13072;DHT22;6602;58.934;11.166;2023-05-10T20:42:51;12.20;99.90
13072;DHT22;6602;58.934;11.166;2023-05-10T20:47:53;12.00;99.90
13072;DHT22;6602;58.934;11.166;2023-05-10T20:52:54;11.80;99.90
13072;DHT22;6602;58.934;11.166;2023-05-10T20:57:55;11.80;99.90
13072;DHT22;6602;58.934;11.166;2023-05-10T21:02:56;11.70;99.90
13072;DHT22;6602;58.934;11.166;2023-05-10T21:07:57;11.70;99.90
13072;DHT22;6602;58.934;11.166;2023-05-10T21:12:58;11.50;99.90
13072;DHT22;6602;58.934;11.166;2023-05-10T21:17:59;11.40;99.90
13072;DHT22;6602;58.934;11.166;2023-05-10T21:23:00;11.40;99.90
13072;DHT22;6602;58.934;11.166;2023-05-10T21:28:01;11.40;99.90
13072;DHT22;6602;58.934;11.166;2023-05-10T21:33:02;11.30;99.90
13072;DHT22;6602;58.934;11.166;2023-05-10T21:38:03;11.10;99.90
13072;DHT22;6602;58.934;11.166;2023-05-10T21:43:04;11.00;99.90
13072;DHT22;6602;58.934;11.166;2023-05-10T21:48:05;10.90;99.90
13072;DHT22;6602;58.934;11.166;2023-05-10T21:53:07;10.70;99.90
13072;DHT22;6602;58.934;11.166;2023-05-10T21:58:08;10.60;99.90
13072;DHT22;6602;58.934;11.166;2023-05-10T22:03:09;10.60;99.90
13072;DHT22;6602;58.934;11.166;2023-05-10T22:08:10;10.50;99.90
13072;DHT22;6602;58.934;11.166;2023-05-10T22:13:11;10.30;99.90
13072;DHT22;6602;58.934;11.166;2023-05-10T22:18:12;10.20;99.90
13072;DHT22;6602;58.934;11.166;2023-05-10T22:23:13;10.10;99.90
13072;DHT22;6602;58.934;11.166;2023-05-10T22:28:14;10.00;99.90
13072;DHT22;6602;58.934;11.166;2023-05-10T22:33:15;9.90;99.90
13072;DHT22;6602;58.934;11.166;2023-05-10T22:38:16;10.00;99.90
13072;DHT22;6602;58.934;11.166;2023-05-10T22:43:17;9.90;99.90
13072;DHT22;6602;58.934;11.166;2023-05-10T22:48:18;9.80;99.90
13072;DHT22;6602;58.934;11.166;2023-05-10T22:53:20;9.90;99.90
13072;DHT22;6602;58.934;11.166;2023-05-10T22:58:21;9.90;99.90
13072;DHT22;6602;58.934;11.166;2023-05-10T23:03:22;9.90;99.90
13072;DHT22;6602;58.934;11.166;2023-05-10T23:08:24;9.90;99.90
13072;DHT22;6602;58.934;11.166;2023-05-10T23:13:25;9.90;99.90
13072;DHT22;6602;58.934;11.166;2023-05-10T23:18:29;9.90;99.90
13072;DHT22;6602;58.934;11.166;2023-05-10T23:23:30;10.00;99.90
13072;DHT22;6602;58.934;11.166;2023-05-10T23:28:33;10.20;99.90
13072;DHT22;6602;58.934;11.166;2023-05-10T23:33:34;10.30;99.90
13072;DHT22;6602;58.934;11.166;2023-05-10T23:38:37;10.30;99.90
13072;DHT22;6602;58.934;11.166;2023-05-10T23:43:38;10.30;99.90
13072;DHT22;6602;58.934;11.166;2023-05-10T23:48:39;10.30;99.90
13072;DHT22;6602;58.934;11.166;2023-05-10T23:53:44;10.40;99.90
13072;DHT22;6602;58.934;11.166;2023-05-10T23:58:47;10.30;99.90
